Port Hedland Pardoo, Australia
Current Conditions -  °F | °C
As of 2:00 PM on Thursday 23 Oct 2014 (Local Time) from YPPD Reporting Station
Clear Clear  
Wind Chill: 100°   Ceiling: Unl
Heat Index: 100°   Visibility: 6mi
Dew Point: 48°   Wind: 22mph
Humidity: 17%   Direction: 310°NW
Pressure: 29.77"   Gusts: NA
Location:  20.1°S, 119.57°E
Report Text: YPPD 230600Z 31019KT CAVOK 38/09 Q1008
Loading
Personal Weather Stations






























Interactive Weather Map
Tropical Storm Tracking
New forecast layout! Learn more

10-Day Weather Forecast

Advertisements
Track Severe Weather on mobile